PST,Max TemperatureF,Mean TemperatureF,Min TemperatureF,Max Dew PointF,MeanDew PointF,Min DewpointF,Max Humidity, Mean Humidity, Min Humidity, Max Sea Level PressureIn, Mean Sea Level PressureIn, Min Sea Level PressureIn, Max VisibilityMiles, Mean VisibilityMiles, Min VisibilityMiles, Max Wind SpeedMPH, Mean Wind SpeedMPH, Max Gust SpeedMPH,PrecipitationIn, CloudCover, Events, WindDirDegrees
2013-11-1,89,70,51,46,39,24,72,41,10,30.09,30.01,29.92,10,10,9,13,3,15,0.00,0,,318
2013-11-2,80,67,53,58,49,32,84,52,19,29.99,29.92,29.88,10,9,6,16,3,21,0.00,1,,171
2013-11-3,68,65,61,56,52,50,78,67,56,29.93,29.88,29.83,10,10,9,12,5,16,0.00,6,,121
2013-11-4,68,62,56,52,50,48,83,70,56,29.94,29.86,29.81,10,10,9,13,5,17,0.00,5,,172
2013-11-5,77,64,50,49,38,22,83,48,13,30.14,30.06,29.95,10,10,5,12,3,14,0.00,0,,313
2013-11-6,84,68,51,42,27,11,51,29,7,30.19,30.14,30.09,10,10,10,13,6,15,0.00,0,,318
2013-11-7,86,71,55,42,28,14,57,32,7,30.11,30.04,29.99,10,10,10,15,3,17,0.00,0,,291
2013-11-8,73,62,51,57,49,35,93,66,39,30.04,29.99,29.94,10,8,0,9,2,12,0.00,1,Fog,154
2013-11-9,74,65,55,55,52,34,93,59,25,30.07,30.03,30.00,10,5,0,8,2,10,0.00,4,Fog,171
2013-11-10,82,68,53,54,49,31,86,51,16,30.12,30.06,30.03,10,7,3,16,3,18,0.00,0,,318
2013-11-11,80,65,49,52,46,38,83,53,23,30.12,30.07,30.02,10,8,6,14,2,17,0.00,0,,310
2013-11-12,78,66,53,51,48,40,83,55,27,30.16,30.09,30.05,10,8,6,12,2,14,0.00,1,,317
2013-11-13,93,73,53,45,38,29,71,41,10,30.05,29.95,29.87,10,10,10,14,4,17,0.00,0,,313
2013-11-14,89,76,62,59,41,25,84,47,10,29.92,29.84,29.77,10,9,3,9,4,12,0.00,1,,205
2013-11-15,68,64,60,57,53,51,84,71,58,29.77,29.73,29.68,10,9,6,14,6,18,0.00,6,,143
2013-11-16,66,61,55,52,48,45,80,64,48,29.94,29.84,29.76,10,10,7,12,4,15,0.00,4,,157
2013-11-17,68,61,53,51,49,46,80,66,52,30.09,30.02,29.95,10,10,8,10,2,14,0.00,2,,236
2013-11-18,69,62,54,52,50,48,83,68,53,30.15,30.10,30.05,10,9,6,14,4,,0.00,6,,280
2013-11-19,65,61,56,52,50,46,77,65,52,30.07,30.02,29.96,10,10,9,10,3,12,0.00,6,,281
2013-11-20,64,60,55,56,53,50,87,76,65,29.98,29.93,29.88,10,7,2,8,3,10,0.18,7,Rain,142
2013-11-21,65,61,57,57,54,50,93,79,65,29.88,29.86,29.83,10,8,2,13,5,20,0.18,7,Rain,213
2013-11-22,65,60,54,50,42,35,83,60,36,29.95,29.89,29.83,10,10,7,15,4,21,0.01,4,Rain,74
2013-11-23,67,59,51,46,41,36,72,53,34,30.09,30.02,29.96,10,10,9,12,3,15,0.00,2,,325
2013-11-24,67,58,48,44,41,37,71,53,34,30.19,30.14,30.09,10,10,9,12,3,14,0.00,0,,269
2013-11-25,74,61,47,49,42,37,77,52,27,30.24,30.19,30.15,10,10,9,13,2,17,0.00,0,,289
2013-11-26,77,63,48,47,42,34,71,46,21,30.18,30.11,30.04,10,10,8,10,2,14,0.00,0,,309
2013-11-27,73,62,51,45,40,34,68,47,25,30.03,29.95,29.88,10,10,9,10,2,14,0.00,0,,193
2013-11-28,68,58,48,53,47,39,86,66,45,30.06,29.97,29.89,10,10,6,10,2,15,T,1,Rain,150
2013-11-29,65,61,56,54,50,48,83,73,63,30.17,30.12,30.06,10,8,3,10,3,20,0.41,6,Rain,352
2013-11-30,76,64,52,50,48,43,83,57,31,30.18,30.14,30.07,10,9,5,13,4,15,0.00,3,,309